Time;durP1;ratioP1;P1;durP2;ratioP2;P2;SDS_P1;SDS_P2;PMS_P1;PMS_P2;Temp;Humidity;BMP_temperature;BMP_pressure;BME280_temperature;BME280_humidity;BME280_pressure;Samples;Min_cycle;Max_cycle;Signal;HPM_P1;HPM_P2
2024/04/05 00:00:40;;;;;;;4.57;4.20;;;12.20;99.90;;;;;;5005161;28;20291;-73
2024/04/05 00:03:07;;;;;;;5.50;4.50;;;12.20;99.90;;;;;;5013596;28;20282;-75
2024/04/05 00:05:33;;;;;;;4.80;4.40;;;12.20;99.90;;;;;;5025534;28;20200;-74
2024/04/05 00:08:00;;;;;;;5.37;4.97;;;12.20;99.90;;;;;;5013325;28;20218;-74
2024/04/05 00:10:26;;;;;;;6.00;5.40;;;12.20;99.90;;;;;;5013172;28;20639;-74
2024/04/05 00:12:54;;;;;;;6.73;6.23;;;12.20;99.90;;;;;;5027663;28;20212;-74
2024/04/05 00:15:20;;;;;;;7.50;7.00;;;12.20;99.90;;;;;;5030526;28;20220;-74
2024/04/05 00:17:47;;;;;;;8.93;8.13;;;12.20;99.90;;;;;;5022721;28;20675;-74
2024/04/05 00:20:13;;;;;;;8.37;7.77;;;12.20;99.90;;;;;;5021153;28;20627;-74
2024/04/05 00:22:40;;;;;;;8.33;7.70;;;12.20;99.90;;;;;;5012947;28;20196;-74
2024/04/05 00:25:06;;;;;;;7.90;7.40;;;12.10;99.90;;;;;;5027904;28;20623;-74
2024/04/05 00:27:33;;;;;;;9.47;8.87;;;12.10;99.90;;;;;;5030863;28;20216;-74
2024/04/05 00:30:01;;;;;;;12.30;11.47;;;12.10;99.90;;;;;;5030295;28;20279;-74
2024/04/05 00:32:27;;;;;;;10.97;10.27;;;12.10;99.90;;;;;;5005932;28;20694;-74
2024/04/05 00:34:53;;;;;;;10.10;9.40;;;12.10;99.90;;;;;;5022481;28;20200;-74
2024/04/05 00:37:20;;;;;;;6.20;5.80;;;12.10;99.90;;;;;;5022211;28;20729;-74
2024/04/05 00:39:46;;;;;;;4.23;3.80;;;12.10;99.90;;;;;;5030961;28;20196;-74
2024/04/05 00:42:13;;;;;;;4.53;4.13;;;12.10;99.90;;;;;;5022553;28;20685;-74
2024/04/05 00:44:39;;;;;;;6.03;5.40;;;12.10;99.90;;;;;;5012853;28;20218;-74
2024/04/05 00:47:08;;;;;;;4.67;4.27;;;12.00;99.90;;;;;;5028886;28;20257;-74
2024/04/05 00:49:34;;;;;;;5.17;4.57;;;12.00;99.90;;;;;;5024525;28;20639;-74
2024/04/05 00:52:03;;;;;;;4.53;4.13;;;12.00;99.90;;;;;;5031848;28;20258;-73
2024/04/05 00:54:29;;;;;;;4.33;3.93;;;12.00;99.90;;;;;;5034556;28;20678;-74
2024/04/05 00:56:58;;;;;;;4.00;3.60;;;12.00;99.90;;;;;;5016330;28;20265;-74
2024/04/05 00:59:26;;;;;;;5.23;4.73;;;12.00;99.90;;;;;;5023194;28;20283;-74
2024/04/05 01:01:53;;;;;;;4.47;3.90;;;12.00;99.90;;;;;;5030452;28;20258;-74
2024/04/05 01:04:20;;;;;;;7.93;4.23;;;12.10;99.90;;;;;;5031626;28;20192;-74
2024/04/05 01:06:47;;;;;;;4.00;3.70;;;12.10;99.90;;;;;;5028553;28;20219;-74
2024/04/05 01:09:13;;;;;;;3.90;3.50;;;12.10;99.90;;;;;;5031349;28;20192;-74
2024/04/05 01:11:40;;;;;;;3.80;3.40;;;12.10;99.90;;;;;;5028788;28;20220;-74
2024/04/05 01:14:06;;;;;;;8.60;8.00;;;12.10;99.90;;;;;;5014110;28;20219;-74
2024/04/05 01:16:32;;;;;;;12.87;12.07;;;12.10;99.90;;;;;;5009417;28;20266;-74
2024/04/05 01:18:58;;;;;;;12.03;11.17;;;12.00;99.90;;;;;;5002704;28;20245;-74
2024/04/05 01:21:27;;;;;;;12.73;11.93;;;12.00;99.90;;;;;;5034738;28;20266;-74
2024/04/05 01:23:54;;;;;;;12.83;12.13;;;12.00;99.90;;;;;;5033493;28;20753;-74
2024/04/05 01:26:21;;;;;;;11.80;11.10;;;12.00;99.90;;;;;;5030757;28;20209;-74
2024/04/05 01:28:47;;;;;;;12.17;11.27;;;12.00;99.90;;;;;;5027842;28;20196;-74
2024/04/05 01:31:14;;;;;;;12.17;11.37;;;12.00;99.90;;;;;;5031715;28;20250;-74
2024/04/05 01:33:39;;;;;;;9.77;9.07;;;11.90;99.90;;;;;;5008344;28;20693;-74
2024/04/05 01:36:07;;;;;;;11.53;10.73;;;12.00;99.90;;;;;;5033210;28;20199;-74
2024/04/05 01:38:33;;;;;;;5.07;4.67;;;11.90;99.90;;;;;;5015884;28;20207;-74
2024/04/05 01:41:01;;;;;;;3.77;3.30;;;11.90;99.90;;;;;;5034152;28;20192;-74
2024/04/05 01:43:27;;;;;;;3.87;3.57;;;11.90;99.90;;;;;;5033870;28;20202;-73
2024/04/05 01:45:53;;;;;;;4.27;3.87;;;11.90;99.90;;;;;;5033292;28;20196;-74
2024/04/05 01:48:19;;;;;;;4.23;3.60;;;11.90;99.90;;;;;;5007778;28;20207;-74
2024/04/05 01:50:46;;;;;;;3.70;3.33;;;11.90;99.90;;;;;;5033685;28;20560;-74
2024/04/05 01:53:12;;;;;;;3.80;3.50;;;11.90;99.90;;;;;;5023745;28;20651;-74
2024/04/05 01:55:38;;;;;;;4.53;3.37;;;11.90;99.90;;;;;;5029421;28;20203;-74
2024/04/05 01:58:08;;;;;;;3.97;3.60;;;11.90;99.90;;;;;;5032568;28;20269;-74
2024/04/05 02:00:36;;;;;;;4.20;3.60;;;11.90;99.90;;;;;;5028561;28;20680;-74
2024/04/05 02:03:01;;;;;;;3.83;3.40;;;11.90;99.90;;;;;;5015348;28;20551;-74
2024/04/05 02:05:28;;;;;;;4.47;3.90;;;11.90;99.90;;;;;;5020562;28;20235;-74
2024/04/05 02:07:54;;;;;;;6.43;3.73;;;11.90;99.90;;;;;;5014997;28;20751;-74
2024/04/05 02:10:21;;;;;;;3.73;3.37;;;11.90;99.90;;;;;;5014331;28;20188;-74
2024/04/05 02:12:47;;;;;;;5.93;3.90;;;11.90;99.90;;;;;;5030819;28;20219;-74
2024/04/05 02:15:15;;;;;;;4.80;3.60;;;12.00;99.90;;;;;;5013172;28;20204;-74
2024/04/05 02:17:41;;;;;;;3.83;3.50;;;11.90;99.90;;;;;;5029053;28;20227;-75
2024/04/05 02:20:09;;;;;;;5.27;3.63;;;11.90;99.90;;;;;;5015227;28;20207;-74
2024/04/05 02:22:34;;;;;;;4.20;3.80;;;11.90;99.90;;;;;;5015133;28;20199;-74
2024/04/05 02:25:01;;;;;;;6.43;4.10;;;12.00;99.90;;;;;;5032733;28;20191;-74
2024/04/05 02:27:27;;;;;;;8.10;7.60;;;12.00;99.90;;;;;;5033033;28;20584;-75
2024/04/05 02:29:54;;;;;;;9.97;9.27;;;12.00;99.90;;;;;;5007101;28;20196;-74
2024/04/05 02:32:21;;;;;;;10.30;9.60;;;12.00;99.90;;;;;;5021507;28;20212;-74
2024/04/05 02:34:48;;;;;;;10.67;9.70;;;12.00;99.90;;;;;;5029520;28;20346;-74
2024/04/05 02:37:14;;;;;;;11.00;10.20;;;11.90;99.90;;;;;;5023981;28;20250;-74
2024/04/05 02:39:41;;;;;;;10.63;9.93;;;11.90;99.90;;;;;;5032887;28;20223;-74
2024/04/05 02:42:07;;;;;;;11.53;10.70;;;11.90;99.90;;;;;;5032761;28;20662;-74
2024/04/05 02:44:33;;;;;;;11.73;10.70;;;11.90;99.90;;;;;;5032743;28;20231;-74
2024/04/05 02:46:59;;;;;;;12.30;11.40;;;11.90;99.90;;;;;;5025100;28;20977;-74
2024/04/05 02:49:27;;;;;;;11.63;10.87;;;11.90;99.90;;;;;;5024341;28;20219;-75
2024/04/05 02:51:53;;;;;;;12.27;11.37;;;11.80;99.90;;;;;;5023768;28;20213;-76
2024/04/05 02:54:20;;;;;;;11.27;10.37;;;11.80;99.90;;;;;;5001411;28;20204;-76
2024/04/05 02:56:45;;;;;;;11.70;11.00;;;11.80;99.90;;;;;;5013987;28;20231;-77
2024/04/05 02:59:12;;;;;;;3.40;3.10;;;11.70;99.90;;;;;;5009387;28;20197;-77
2024/04/05 03:01:38;;;;;;;3.40;3.10;;;11.70;99.90;;;;;;5014550;28;20196;-77
2024/04/05 03:04:05;;;;;;;3.50;3.20;;;11.70;99.90;;;;;;5031984;28;20581;-77
2024/04/05 03:06:32;;;;;;;3.93;3.20;;;11.70;99.90;;;;;;5031357;28;20220;-77
2024/04/05 03:08:59;;;;;;;3.40;3.20;;;11.70;99.90;;;;;;5032130;28;20210;-77
2024/04/05 03:11:24;;;;;;;3.67;3.30;;;11.70;99.90;;;;;;5014375;28;20223;-77
2024/04/05 03:13:51;;;;;;;3.73;3.43;;;11.70;99.90;;;;;;5013714;28;20246;-77
2024/04/05 03:16:17;;;;;;;3.13;2.93;;;11.70;99.90;;;;;;5030942;28;20228;-76
2024/04/05 03:18:44;;;;;;;3.33;3.03;;;11.70;99.90;;;;;;5032267;28;20211;-76
2024/04/05 03:21:10;;;;;;;4.23;3.40;;;11.70;99.90;;;;;;5032096;28;20250;-76
2024/04/05 03:23:38;;;;;;;3.70;3.40;;;11.70;99.90;;;;;;5014084;28;20196;-76
2024/04/05 03:26:04;;;;;;;3.80;3.50;;;11.70;99.90;;;;;;5027469;28;20236;-75
2024/04/05 03:28:31;;;;;;;3.53;3.20;;;11.70;99.90;;;;;;5014118;28;20230;-75
2024/04/05 03:30:57;;;;;;;3.40;3.10;;;11.80;99.90;;;;;;5032028;28;20208;-75
2024/04/05 03:33:23;;;;;;;12.03;11.30;;;11.70;99.90;;;;;;5031609;28;20273;-75
2024/04/05 03:35:51;;;;;;;12.00;11.30;;;11.80;99.90;;;;;;5025557;28;20658;-74
2024/04/05 03:38:18;;;;;;;11.77;10.87;;;11.80;99.90;;;;;;5030697;28;20195;-76
2024/04/05 03:40:45;;;;;;;6.80;6.40;;;11.70;99.90;;;;;;5030974;28;20675;-74
2024/04/05 03:43:12;;;;;;;3.73;3.53;;;11.70;99.90;;;;;;5031047;28;20196;-74
2024/04/05 03:45:38;;;;;;;3.77;3.47;;;11.60;99.90;;;;;;5030850;28;20204;-73
2024/04/05 03:48:05;;;;;;;5.33;3.90;;;11.60;99.90;;;;;;5036293;28;20211;-74
2024/04/05 03:50:31;;;;;;;4.53;4.13;;;11.50;99.90;;;;;;5024044;28;20209;-74
2024/04/05 03:52:58;;;;;;;4.70;4.30;;;11.50;99.90;;;;;;5027064;28;20220;-74
2024/04/05 03:55:24;;;;;;;6.00;5.50;;;11.40;99.90;;;;;;5009424;28;20206;-74
2024/04/05 03:57:52;;;;;;;10.50;9.67;;;11.40;99.90;;;;;;5025607;28;20633;-74
2024/04/05 04:00:19;;;;;;;12.33;11.53;;;11.30;99.90;;;;;;5030700;28;20227;-74
2024/04/05 04:02:45;;;;;;;12.17;11.37;;;11.30;99.90;;;;;;5031154;28;20578;-74
2024/04/05 04:05:11;;;;;;;4.77;4.43;;;11.30;99.90;;;;;;5012216;28;20202;-74
2024/04/05 04:07:38;;;;;;;4.30;3.90;;;11.20;99.90;;;;;;5012879;28;20310;-74
2024/04/05 04:10:04;;;;;;;4.30;3.90;;;11.20;99.90;;;;;;5023952;28;20267;-74
2024/04/05 04:12:31;;;;;;;10.37;9.67;;;11.20;99.90;;;;;;5030883;28;20694;-74
2024/04/05 04:14:59;;;;;;;12.20;11.37;;;11.10;99.90;;;;;;5023254;28;20689;-74
2024/04/05 04:17:26;;;;;;;12.37;11.67;;;11.10;99.90;;;;;;5038931;23;20236;-74
2024/04/05 04:19:52;;;;;;;11.80;11.00;;;11.10;99.90;;;;;;5026440;28;20218;-75
2024/04/05 04:22:19;;;;;;;5.70;5.20;;;11.00;99.90;;;;;;5036945;28;20198;-74
2024/04/05 04:24:45;;;;;;;4.70;4.30;;;11.00;99.90;;;;;;5030690;28;20252;-74
2024/04/05 04:27:12;;;;;;;5.13;4.27;;;11.00;99.90;;;;;;5027217;28;20710;-74
2024/04/05 04:29:39;;;;;;;4.97;4.57;;;11.00;99.90;;;;;;5016141;28;20210;-74
2024/04/05 04:32:07;;;;;;;9.63;5.00;;;10.90;99.90;;;;;;5021600;28;20211;-73
2024/04/05 04:34:34;;;;;;;6.17;4.73;;;10.90;99.90;;;;;;5016456;28;20575;-74
2024/04/05 04:37:01;;;;;;;6.00;4.70;;;10.90;99.90;;;;;;5017992;28;20219;-74
2024/04/05 04:39:26;;;;;;;4.60;4.20;;;10.90;99.90;;;;;;5010629;28;20285;-74
2024/04/05 04:41:54;;;;;;;4.80;4.40;;;10.90;99.90;;;;;;5009423;28;20739;-74
2024/04/05 04:44:21;;;;;;;5.70;4.83;;;10.90;99.90;;;;;;5010450;28;20209;-74
2024/04/05 04:46:48;;;;;;;5.80;4.77;;;10.90;99.90;;;;;;5017914;28;20709;-74
2024/04/05 04:49:15;;;;;;;5.00;4.60;;;10.90;99.90;;;;;;5024559;28;20207;-74
2024/04/05 04:51:42;;;;;;;4.70;4.30;;;10.80;99.90;;;;;;5022592;28;20203;-74
2024/04/05 04:54:08;;;;;;;5.00;4.60;;;10.80;99.90;;;;;;5021454;28;20263;-74
2024/04/05 04:56:34;;;;;;;5.50;5.00;;;10.80;99.90;;;;;;5015372;28;20665;-74
2024/04/05 04:59:00;;;;;;;7.10;4.77;;;10.80;99.90;;;;;;5023470;28;20209;-74
2024/04/05 05:01:27;;;;;;;5.33;4.67;;;10.70;99.90;;;;;;5013375;28;20253;-74
2024/04/05 05:03:53;;;;;;;4.73;4.33;;;10.70;99.90;;;;;;5025102;28;20287;-74
2024/04/05 05:06:22;;;;;;;5.27;4.77;;;10.70;99.90;;;;;;5019235;28;20200;-74
2024/04/05 05:08:47;;;;;;;6.23;5.37;;;10.60;99.90;;;;;;5024801;28;20205;-74
2024/04/05 05:11:14;;;;;;;5.77;4.87;;;10.60;99.90;;;;;;5013757;28;20202;-74
2024/04/05 05:13:40;;;;;;;6.03;5.20;;;10.60;99.90;;;;;;5021938;28;20223;-75
2024/04/05 05:16:08;;;;;;;6.23;5.30;;;10.60;99.90;;;;;;5025558;28;20190;-74
2024/04/05 05:18:34;;;;;;;5.80;5.17;;;10.60;99.90;;;;;;5007113;28;20230;-74
2024/04/05 05:21:01;;;;;;;7.03;5.37;;;10.60;99.90;;;;;;5026187;28;20570;-74
2024/04/05 05:23:28;;;;;;;6.07;5.30;;;10.60;99.90;;;;;;5026894;28;20228;-74
2024/04/05 05:25:57;;;;;;;5.40;4.90;;;10.70;99.90;;;;;;5018896;28;20575;-74
2024/04/05 05:28:23;;;;;;;5.60;4.80;;;10.70;99.90;;;;;;5019089;28;20228;-75
2024/04/05 05:30:50;;;;;;;5.07;4.50;;;10.80;99.90;;;;;;5019796;28;20202;-75
2024/04/05 05:33:16;;;;;;;5.10;4.60;;;10.80;99.90;;;;;;5027250;28;20280;-74
2024/04/05 05:35:43;;;;;;;4.97;4.47;;;10.90;99.90;;;;;;5012352;28;20655;-74
2024/04/05 05:38:08;;;;;;;5.20;4.80;;;10.90;99.90;;;;;;5028694;28;20579;-74
2024/04/05 05:40:37;;;;;;;6.13;4.70;;;10.90;99.90;;;;;;5018733;28;20230;-74
2024/04/05 05:43:03;;;;;;;4.70;4.30;;;11.00;99.90;;;;;;5022878;28;20223;-75
2024/04/05 05:45:29;;;;;;;5.03;4.53;;;11.10;99.90;;;;;;5033033;28;20206;-74
2024/04/05 05:47:56;;;;;;;5.87;4.60;;;11.20;99.90;;;;;;5027013;28;20219;-74
2024/04/05 05:50:24;;;;;;;5.07;4.53;;;11.20;99.90;;;;;;5014036;28;20196;-75
2024/04/05 05:52:50;;;;;;;5.00;4.60;;;11.20;99.90;;;;;;5017991;28;20584;-75
2024/04/05 05:55:17;;;;;;;4.87;4.47;;;11.30;99.90;;;;;;5013401;28;20202;-75
2024/04/05 05:57:44;;;;;;;5.33;4.80;;;11.30;99.90;;;;;;5026638;28;20222;-75
2024/04/05 06:00:11;;;;;;;5.13;4.63;;;11.30;99.90;;;;;;5022639;28;20655;-74
2024/04/05 06:02:37;;;;;;;4.90;4.47;;;11.30;99.90;;;;;;5033384;28;20203;-75
2024/04/05 06:05:05;;;;;;;4.80;4.40;;;11.30;99.90;;;;;;5016834;28;20203;-74
2024/04/05 06:07:31;;;;;;;4.97;4.57;;;11.50;99.90;;;;;;5024881;28;20277;-74
2024/04/05 06:09:58;;;;;;;12.20;11.50;;;11.80;99.90;;;;;;5026685;28;20279;-75
2024/04/05 06:12:24;;;;;;;4.30;3.90;;;11.90;99.90;;;;;;5023506;28;20212;-75
2024/04/05 06:14:55;;;;;;;12.30;11.50;;;12.00;99.90;;;;;;5023956;28;20638;-75
2024/04/05 06:17:21;;;;;;;11.33;10.43;;;12.30;99.90;;;;;;5023269;28;20228;-75
2024/04/05 06:19:52;;;;;;;11.83;11.03;;;12.60;99.90;;;;;;5031685;28;20629;-74
2024/04/05 06:22:18;;;;;;;10.70;10.00;;;13.00;99.90;;;;;;5026732;28;20189;-75
2024/04/05 06:24:50;;;;;;;10.87;10.17;;;13.40;99.90;;;;;;5024842;28;20545;-74
2024/04/05 06:27:16;;;;;;;5.10;4.60;;;13.60;99.90;;;;;;5026385;28;20222;-75
2024/04/05 06:29:43;;;;;;;4.37;3.97;;;13.80;99.90;;;;;;5025038;28;20200;-75
2024/04/05 06:32:10;;;;;;;6.40;3.97;;;13.90;99.90;;;;;;5022276;28;20258;-75
2024/04/05 06:34:40;;;;;;;6.00;4.23;;;13.90;99.90;;;;;;5026963;28;20673;-75
2024/04/05 06:37:06;;;;;;;4.33;3.93;;;14.10;99.90;;;;;;5027999;28;20243;-73
2024/04/05 06:39:33;;;;;;;4.00;3.70;;;14.20;99.90;;;;;;5024400;28;20206;-75
2024/04/05 06:41:59;;;;;;;4.33;3.93;;;14.40;99.90;;;;;;5004293;28;20612;-75
2024/04/05 06:44:27;;;;;;;4.03;3.57;;;14.60;99.90;;;;;;5024876;28;20516;-75
2024/04/05 06:46:53;;;;;;;5.90;5.40;;;14.80;99.90;;;;;;5023289;28;20223;-75
2024/04/05 06:49:21;;;;;;;5.13;4.63;;;15.10;99.90;;;;;;5021461;28;20202;-75
2024/04/05 06:51:46;;;;;;;4.03;3.70;;;15.30;99.90;;;;;;5024506;28;20199;-75
2024/04/05 06:54:13;;;;;;;4.00;3.23;;;15.50;99.90;;;;;;5015860;28;20760;-75
2024/04/05 06:56:39;;;;;;;4.23;3.30;;;15.80;99.90;;;;;;5014650;28;20204;-75
2024/04/05 06:59:06;;;;;;;3.63;2.97;;;16.10;99.90;;;;;;5015875;28;20251;-75
2024/04/05 07:01:32;;;;;;;3.63;3.33;;;16.30;99.90;;;;;;5012881;28;20221;-75
2024/04/05 07:03:59;;;;;;;3.53;3.30;;;16.40;99.90;;;;;;5017918;28;20254;-75
2024/04/05 07:06:26;;;;;;;3.77;3.47;;;16.50;99.90;;;;;;5023235;28;20278;-75
2024/04/05 07:08:53;;;;;;;4.60;4.00;;;16.40;99.90;;;;;;5015326;28;20204;-75
2024/04/05 07:11:18;;;;;;;5.07;4.67;;;16.40;99.90;;;;;;5021898;28;20250;-75
2024/04/05 07:13:46;;;;;;;6.10;5.50;;;16.50;99.90;;;;;;5024130;28;20646;-75
2024/04/05 07:16:13;;;;;;;13.17;6.70;;;16.70;99.90;;;;;;5029101;28;20325;-75
2024/04/05 07:18:39;;;;;;;9.97;9.03;;;16.80;99.90;;;;;;5025610;28;20314;-76
2024/04/05 07:21:05;;;;;;;9.90;9.03;;;16.90;99.90;;;;;;5025329;28;20630;-76
2024/04/05 07:23:34;;;;;;;10.00;9.27;;;17.00;99.90;;;;;;5008849;28;20220;-76
2024/04/05 07:26:00;;;;;;;10.33;9.40;;;17.10;99.90;;;;;;5022096;28;20205;-75
2024/04/05 07:28:27;;;;;;;9.93;9.03;;;17.20;99.90;;;;;;5012591;28;20228;-75
2024/04/05 07:30:53;;;;;;;9.83;9.23;;;17.30;99.90;;;;;;5016450;28;20256;-75
2024/04/05 07:33:19;;;;;;;10.23;9.53;;;17.50;99.90;;;;;;5023078;28;20724;-75
2024/04/05 07:35:45;;;;;;;10.10;9.30;;;17.60;99.90;;;;;;5018230;28;20206;-75
2024/04/05 07:38:12;;;;;;;10.23;9.57;;;17.60;99.90;;;;;;5016792;28;20660;-75
2024/04/05 07:40:39;;;;;;;11.50;10.80;;;17.80;99.90;;;;;;5011268;28;20621;-75
2024/04/05 07:43:06;;;;;;;9.80;9.20;;;18.00;99.90;;;;;;5012444;28;20200;-75
2024/04/05 07:45:32;;;;;;;5.50;4.97;;;18.20;99.90;;;;;;5017175;28;20235;-75
2024/04/05 07:47:58;;;;;;;5.33;3.80;;;18.20;99.90;;;;;;5022510;28;20242;-75
2024/04/05 07:50:24;;;;;;;9.27;8.57;;;18.30;99.90;;;;;;5020047;28;20259;-75
2024/04/05 07:52:53;;;;;;;4.60;3.50;;;18.40;99.90;;;;;;5019914;28;20224;-75
2024/04/05 07:55:19;;;;;;;5.20;4.70;;;18.50;99.90;;;;;;5020645;28;20200;-75
2024/04/05 07:57:47;;;;;;;10.10;9.40;;;18.90;99.90;;;;;;5020927;28;20219;-75
2024/04/05 08:00:14;;;;;;;10.20;9.50;;;19.30;99.90;;;;;;5021283;28;20675;-75
2024/04/05 08:02:45;;;;;;;10.13;9.33;;;19.60;99.90;;;;;;5020074;28;20251;-75
2024/04/05 08:05:11;;;;;;;9.70;9.00;;;19.80;99.90;;;;;;5016437;28;20192;-75
2024/04/05 08:07:38;;;;;;;9.60;8.80;;;19.80;99.90;;;;;;5006151;28;20270;-75
2024/04/05 08:10:04;;;;;;;10.10;9.40;;;20.10;99.90;;;;;;5024729;28;20666;-75
2024/04/05 08:12:31;;;;;;;9.27;8.67;;;20.50;99.90;;;;;;5015190;28;20191;-75
2024/04/05 08:14:58;;;;;;;9.80;9.00;;;20.80;99.90;;;;;;5025927;28;20204;-75
2024/04/05 08:17:25;;;;;;;9.97;9.20;;;21.10;99.90;;;;;;5022287;28;20252;-75
2024/04/05 08:19:50;;;;;;;10.00;9.30;;;21.40;99.90;;;;;;5029697;28;20192;-75
2024/04/05 08:22:18;;;;;;;9.30;8.70;;;21.70;99.90;;;;;;5012374;28;20188;-75
2024/04/05 08:24:43;;;;;;;9.77;9.17;;;21.90;99.90;;;;;;5023196;28;20222;-75
2024/04/05 08:27:10;;;;;;;10.27;9.67;;;22.10;99.90;;;;;;5020085;28;20625;-74
2024/04/05 08:29:37;;;;;;;7.67;7.07;;;22.40;99.90;;;;;;5023797;28;20567;-75
2024/04/05 08:32:06;;;;;;;2.90;2.40;;;22.40;99.90;;;;;;5018466;28;20201;-76
2024/04/05 08:34:32;;;;;;;4.10;2.47;;;22.60;99.90;;;;;;5016532;28;20215;-75
2024/04/05 08:37:00;;;;;;;3.37;3.13;;;22.80;99.90;;;;;;5019729;28;20340;-76
2024/04/05 08:39:26;;;;;;;6.10;5.50;;;22.90;99.90;;;;;;5021614;28;20671;-76
2024/04/05 08:42:03;;;;;;;2.60;2.40;;;23.00;99.90;;;;;;5013662;28;20245;-75
2024/04/05 08:44:31;;;;;;;8.97;8.37;;;23.30;99.90;;;;;;5019861;28;20197;-76
2024/04/05 08:46:59;;;;;;;4.10;2.83;;;23.50;99.90;;;;;;5021649;28;20254;-75
2024/04/05 08:49:28;;;;;;;3.77;2.53;;;23.60;99.90;;;;;;5018093;28;20195;-76
2024/04/05 08:51:55;;;;;;;3.80;2.63;;;23.30;99.90;;;;;;5022463;28;20698;-76
2024/04/05 08:54:20;;;;;;;8.93;8.23;;;23.30;99.90;;;;;;5022737;28;20269;-76
2024/04/05 08:56:51;;;;;;;6.77;6.27;;;23.30;99.90;;;;;;5016894;28;20633;-75
2024/04/05 08:59:18;;;;;;;9.17;8.57;;;23.40;99.90;;;;;;5010237;28;20200;-76
2024/04/05 09:01:50;;;;;;;9.40;8.60;;;23.60;99.90;;;;;;5017070;28;20271;-75
2024/04/05 09:04:17;;;;;;;9.20;8.60;;;23.80;99.90;;;;;;5019082;28;20238;-76
2024/04/05 09:06:45;;;;;;;9.13;8.53;;;24.00;99.90;;;;;;5022940;28;20215;-76
2024/04/05 09:09:11;;;;;;;9.80;8.90;;;24.10;99.90;;;;;;5009810;28;20212;-77
2024/04/05 09:11:38;;;;;;;9.60;8.80;;;24.10;99.90;;;;;;5021931;28;20199;-77
2024/04/05 09:14:04;;;;;;;11.07;10.37;;;24.10;99.90;;;;;;5016625;28;20213;-78
2024/04/05 09:16:32;;;;;;;9.03;8.50;;;24.00;99.90;;;;;;5024662;28;20196;-77
2024/04/05 09:19:08;;;;;;;9.37;8.67;;;24.10;99.90;;;;;;5026705;28;20287;-77
2024/04/05 09:21:42;;;;;;;9.17;8.57;;;24.10;99.90;;;;;;5027986;28;20666;-79
2024/04/05 09:24:11;;;;;;;9.10;8.50;;;24.30;99.90;;;;;;5026846;28;20192;-78
2024/04/05 09:26:38;;;;;;;9.00;8.40;;;24.60;99.90;;;;;;5028168;28;20732;-78
2024/04/05 09:29:06;;;;;;;9.57;8.97;;;24.80;99.90;;;;;;5032536;28;20553;-77
2024/04/05 09:31:33;;;;;;;9.30;8.60;;;24.90;99.90;;;;;;5018352;28;20204;-78
2024/04/05 09:34:06;;;;;;;9.30;8.67;;;25.10;99.90;;;;;;5024221;28;20254;-79
2024/04/05 09:36:34;;;;;;;8.50;7.90;;;25.40;99.90;;;;;;5016097;28;20189;-78
2024/04/05 09:39:02;;;;;;;8.43;7.93;;;25.50;99.90;;;;;;5014539;28;20251;-78
2024/04/05 09:41:34;;;;;;;8.57;8.07;;;25.50;99.90;;;;;;5024800;28;20606;-78
2024/04/05 09:44:02;;;;;;;8.40;7.80;;;25.50;99.90;;;;;;5019400;28;20268;-77
2024/04/05 09:46:29;;;;;;;8.50;7.90;;;25.60;99.90;;;;;;5025296;28;20218;-77
2024/04/05 09:48:58;;;;;;;8.97;8.37;;;25.80;99.90;;;;;;5029918;28;20215;-78
2024/04/05 09:51:27;;;;;;;8.23;7.70;;;25.90;99.90;;;;;;5026548;28;20641;-77
2024/04/05 09:53:54;;;;;;;8.40;7.80;;;25.90;99.90;;;;;;5021166;28;20302;-78
2024/04/05 09:56:24;;;;;;;7.40;6.90;;;25.70;99.90;;;;;;5030445;28;20195;-77
2024/04/05 09:58:53;;;;;;;8.50;8.00;;;26.00;99.90;;;;;;5019236;28;20196;-78
2024/04/05 10:01:22;;;;;;;8.40;7.90;;;26.00;99.90;;;;;;5026630;28;20195;-77
2024/04/05 10:03:53;;;;;;;7.97;7.40;;;26.20;99.90;;;;;;5022956;28;20180;-78
2024/04/05 10:06:24;;;;;;;7.13;6.47;;;26.20;99.90;;;;;;5022752;28;20188;-77
2024/04/05 10:08:49;;;;;;;8.43;7.63;;;26.10;99.90;;;;;;5027512;28;20196;-78
2024/04/05 10:11:16;;;;;;;7.50;7.00;;;26.20;99.90;;;;;;5018299;28;20199;-78
2024/04/05 10:13:42;;;;;;;5.97;5.57;;;26.00;99.90;;;;;;5019638;28;20287;-78
2024/04/05 10:16:11;;;;;;;5.20;4.90;;;25.90;99.90;;;;;;5029894;28;20223;-78
2024/04/05 10:18:39;;;;;;;6.67;6.27;;;25.80;99.90;;;;;;5024159;28;20703;-77
2024/04/05 10:21:08;;;;;;;7.03;6.53;;;25.80;99.90;;;;;;5023365;28;20195;-78
2024/04/05 10:23:35;;;;;;;6.63;5.80;;;25.60;99.90;;;;;;5017606;28;20197;-77
2024/04/05 10:26:03;;;;;;;4.00;3.70;;;25.50;99.90;;;;;;5020871;28;20201;-77
2024/04/05 10:28:29;;;;;;;4.27;3.97;;;25.50;99.90;;;;;;5027669;28;20282;-77
2024/04/05 10:30:56;;;;;;;3.33;3.03;;;25.40;99.90;;;;;;5022997;28;20193;-78
2024/04/05 10:33:24;;;;;;;3.73;3.43;;;25.50;99.90;;;;;;5027358;28;20573;-77
2024/04/05 10:35:51;;;;;;;2.70;2.60;;;25.40;99.90;;;;;;5019852;28;20198;-77
2024/04/05 10:38:17;;;;;;;2.70;2.50;;;25.30;99.90;;;;;;5030699;28;20212;-78
2024/04/05 10:40:44;;;;;;;3.43;3.13;;;25.20;99.90;;;;;;5028130;28;20736;-77
2024/04/05 10:43:11;;;;;;;2.80;2.70;;;25.20;99.90;;;;;;5027733;28;20287;-77
2024/04/05 10:45:39;;;;;;;3.37;2.37;;;25.30;99.90;;;;;;5016449;28;20201;-78
2024/04/05 10:48:05;;;;;;;3.07;2.27;;;25.40;99.90;;;;;;5024040;28;20216;-77
2024/04/05 10:50:38;;;;;;;3.73;2.60;;;25.50;99.90;;;;;;5027149;28;20254;-77
2024/04/05 10:53:05;;;;;;;2.73;2.50;;;25.50;99.90;;;;;;5019740;28;20208;-77
2024/04/05 10:55:32;;;;;;;2.30;2.10;;;25.50;99.90;;;;;;5023980;28;20203;-78
2024/04/05 10:58:02;;;;;;;2.43;2.23;;;25.40;99.90;;;;;;5024700;28;20694;-78
2024/04/05 11:00:30;;;;;;;2.70;2.50;;;25.40;99.90;;;;;;5023025;28;20203;-76
2024/04/05 11:02:57;;;;;;;3.00;2.80;;;25.40;99.90;;;;;;5021487;28;20188;-77
2024/04/05 11:05:24;;;;;;;2.53;2.20;;;25.50;99.90;;;;;;5015297;28;20212;-78
2024/04/05 11:07:59;;;;;;;2.73;2.27;;;25.60;99.90;;;;;;5023312;28;20223;-77
2024/04/05 11:10:30;;;;;;;2.50;2.40;;;25.50;99.90;;;;;;5028893;28;20188;-77
2024/04/05 11:12:57;;;;;;;2.60;2.40;;;25.60;99.90;;;;;;5016678;28;20221;-78
2024/04/05 11:15:24;;;;;;;2.30;2.10;;;25.50;99.90;;;;;;5023595;28;20215;-78
2024/04/05 11:17:59;;;;;;;2.10;2.00;;;25.50;99.90;;;;;;5016857;28;20582;-78
2024/04/05 11:20:29;;;;;;;2.17;2.00;;;25.60;99.90;;;;;;5020177;28;20275;-77
2024/04/05 11:22:55;;;;;;;4.53;2.13;;;25.60;99.90;;;;;;5017482;28;20204;-78
2024/04/05 11:25:23;;;;;;;2.50;2.10;;;25.50;99.90;;;;;;5016348;28;20189;-78
2024/04/05 11:27:49;;;;;;;2.30;2.10;;;25.50;99.80;;;;;;5014660;28;20220;-78
2024/04/05 11:30:16;;;;;;;2.30;2.20;;;25.50;98.90;;;;;;5026181;28;20184;-78
2024/04/05 11:32:43;;;;;;;2.43;2.20;;;25.60;99.40;;;;;;5022246;28;20744;-78
2024/04/05 11:35:12;;;;;;;2.10;1.90;;;25.60;99.20;;;;;;5022792;28;20215;-78
2024/04/05 11:37:38;;;;;;;3.10;2.50;;;25.60;99.90;;;;;;5022985;28;20227;-77
2024/04/05 11:40:09;;;;;;;2.10;2.00;;;25.70;98.70;;;;;;5018243;28;20198;-77
2024/04/05 11:42:36;;;;;;;2.00;1.90;;;25.70;99.40;;;;;;5022785;28;20215;-77
2024/04/05 11:45:04;;;;;;;2.17;2.00;;;25.70;99.90;;;;;;5022913;28;20562;-76
2024/04/05 11:47:30;;;;;;;2.20;2.03;;;25.60;99.80;;;;;;5026787;28;20230;-77
2024/04/05 11:49:57;;;;;;;2.10;2.00;;;25.50;99.80;;;;;;5019400;28;20196;-77
2024/04/05 11:52:23;;;;;;;2.40;2.20;;;25.60;99.80;;;;;;5018558;28;20204;-78
2024/04/05 11:54:50;;;;;;;2.10;2.00;;;25.60;99.80;;;;;;5006823;28;20219;-77
2024/04/05 11:57:16;;;;;;;3.00;2.10;;;25.50;99.90;;;;;;5018551;28;20222;-77
2024/04/05 11:59:45;;;;;;;2.33;2.13;;;25.40;98.90;;;;;;5025548;28;20276;-77
2024/04/05 12:02:11;;;;;;;2.30;2.10;;;25.30;98.90;;;;;;5024975;28;20200;-77
2024/04/05 12:04:38;;;;;;;2.43;2.00;;;25.30;99.90;;;;;;5024419;28;20203;-77
2024/04/05 12:07:05;;;;;;;2.10;2.00;;;25.10;99.30;;;;;;5029572;28;20223;-77
2024/04/05 12:09:32;;;;;;;2.30;2.10;;;25.10;99.50;;;;;;5027748;28;20358;-77
2024/04/05 12:11:58;;;;;;;2.60;2.40;;;25.00;99.90;;;;;;5023462;28;20252;-77
2024/04/05 12:14:25;;;;;;;2.60;2.40;;;25.00;99.90;;;;;;5028316;28;20223;-78
2024/04/05 12:16:52;;;;;;;3.70;2.30;;;25.00;99.90;;;;;;5022885;28;20239;-77
2024/04/05 12:19:19;;;;;;;2.30;2.20;;;24.90;99.60;;;;;;5022603;28;20204;-77
2024/04/05 12:21:45;;;;;;;2.37;2.17;;;24.80;99.90;;;;;;5011475;28;20239;-77
2024/04/05 12:24:12;;;;;;;2.50;2.30;;;24.60;99.90;;;;;;5018399;28;20185;-78
2024/04/05 12:26:37;;;;;;;2.47;2.37;;;24.40;99.90;;;;;;5020323;28;20625;-78
2024/04/05 12:29:05;;;;;;;2.93;2.70;;;24.30;99.90;;;;;;5026349;28;20210;-77
2024/04/05 12:31:40;;;;;;;2.40;2.20;;;24.20;99.90;;;;;;5014621;28;20594;-80
2024/04/05 12:34:08;;;;;;;2.87;2.20;;;24.10;99.90;;;;;;5005230;28;20260;-77
2024/04/05 12:36:34;;;;;;;2.23;2.13;;;24.20;99.90;;;;;;5012183;28;20263;-77
2024/04/05 12:39:07;;;;;;;3.47;2.30;;;24.30;99.90;;;;;;5021164;28;20201;-77
2024/04/05 12:41:45;;;;;;;3.53;3.30;;;24.50;99.90;;;;;;5024553;28;20196;-79